sensor_id;sensor_type;location;lat;lon;timestamp;P1;durP1;ratioP1;P2;durP2;ratioP2
71456;SDS011;59263;48.160;11.752;2023-07-13T00:00:09;3.65;;;1.27;;
71456;SDS011;59263;48.160;11.752;2023-07-13T00:02:40;4.18;;;1.40;;
71456;SDS011;59263;48.160;11.752;2023-07-13T00:05:06;4.68;;;1.50;;
71456;SDS011;59263;48.160;11.752;2023-07-13T00:07:31;3.43;;;1.20;;
71456;SDS011;59263;48.160;11.752;2023-07-13T00:09:56;4.13;;;1.47;;
71456;SDS011;59263;48.160;11.752;2023-07-13T00:12:28;3.25;;;1.10;;
71456;SDS011;59263;48.160;11.752;2023-07-13T00:14:59;5.25;;;1.60;;
71456;SDS011;59263;48.160;11.752;2023-07-13T00:17:26;3.67;;;1.20;;
71456;SDS011;59263;48.160;11.752;2023-07-13T00:19:53;5.03;;;1.50;;
71456;SDS011;59263;48.160;11.752;2023-07-13T00:22:20;4.85;;;1.50;;
71456;SDS011;59263;48.160;11.752;2023-07-13T00:24:46;5.70;;;1.50;;
71456;SDS011;59263;48.160;11.752;2023-07-13T00:27:12;3.87;;;1.30;;
71456;SDS011;59263;48.160;11.752;2023-07-13T00:29:38;4.95;;;1.65;;
71456;SDS011;59263;48.160;11.752;2023-07-13T00:32:04;3.57;;;1.30;;
71456;SDS011;59263;48.160;11.752;2023-07-13T00:34:30;3.90;;;1.20;;
71456;SDS011;59263;48.160;11.752;2023-07-13T00:36:56;4.70;;;1.70;;
71456;SDS011;59263;48.160;11.752;2023-07-13T00:39:22;5.00;;;1.45;;
71456;SDS011;59263;48.160;11.752;2023-07-13T00:41:47;3.47;;;1.27;;
71456;SDS011;59263;48.160;11.752;2023-07-13T00:44:13;5.60;;;1.60;;
71456;SDS011;59263;48.160;11.752;2023-07-13T00:46:40;4.70;;;1.35;;
71456;SDS011;59263;48.160;11.752;2023-07-13T00:49:06;4.90;;;1.60;;
71456;SDS011;59263;48.160;11.752;2023-07-13T00:51:38;3.65;;;1.10;;
71456;SDS011;59263;48.160;11.752;2023-07-13T00:54:06;4.93;;;1.60;;
71456;SDS011;59263;48.160;11.752;2023-07-13T00:56:36;2.90;;;1.00;;
71456;SDS011;59263;48.160;11.752;2023-07-13T00:59:02;4.53;;;1.43;;
71456;SDS011;59263;48.160;11.752;2023-07-13T01:01:30;2.72;;;0.98;;
71456;SDS011;59263;48.160;11.752;2023-07-13T01:03:56;5.97;;;1.30;;
71456;SDS011;59263;48.160;11.752;2023-07-13T01:06:22;5.00;;;1.20;;
71456;SDS011;59263;48.160;11.752;2023-07-13T01:08:47;4.03;;;0.93;;
71456;SDS011;59263;48.160;11.752;2023-07-13T01:11:13;3.05;;;1.20;;
71456;SDS011;59263;48.160;11.752;2023-07-13T01:13:44;3.50;;;1.10;;
71456;SDS011;59263;48.160;11.752;2023-07-13T01:16:23;8.60;;;1.40;;
71456;SDS011;59263;48.160;11.752;2023-07-13T01:18:50;4.15;;;1.38;;
71456;SDS011;59263;48.160;11.752;2023-07-13T01:21:16;4.63;;;1.43;;
71456;SDS011;59263;48.160;11.752;2023-07-13T01:23:42;3.35;;;1.30;;
71456;SDS011;59263;48.160;11.752;2023-07-13T01:26:09;2.85;;;0.98;;
71456;SDS011;59263;48.160;11.752;2023-07-13T01:28:34;4.57;;;1.37;;
71456;SDS011;59263;48.160;11.752;2023-07-13T01:31:02;3.67;;;1.35;;
71456;SDS011;59263;48.160;11.752;2023-07-13T01:33:28;3.30;;;1.10;;
71456;SDS011;59263;48.160;11.752;2023-07-13T01:35:53;4.00;;;1.10;;
71456;SDS011;59263;48.160;11.752;2023-07-13T01:38:20;3.60;;;1.13;;
71456;SDS011;59263;48.160;11.752;2023-07-13T01:40:47;3.97;;;1.25;;
71456;SDS011;59263;48.160;11.752;2023-07-13T01:43:13;4.78;;;1.40;;
71456;SDS011;59263;48.160;11.752;2023-07-13T01:45:39;4.60;;;1.00;;
71456;SDS011;59263;48.160;11.752;2023-07-13T01:48:04;5.20;;;1.27;;
71456;SDS011;59263;48.160;11.752;2023-07-13T01:50:31;4.32;;;1.50;;
71456;SDS011;59263;48.160;11.752;2023-07-13T01:52:57;5.32;;;1.00;;
71456;SDS011;59263;48.160;11.752;2023-07-13T01:55:22;3.47;;;1.30;;
71456;SDS011;59263;48.160;11.752;2023-07-13T01:57:48;3.93;;;1.20;;
71456;SDS011;59263;48.160;11.752;2023-07-13T02:00:14;3.90;;;1.02;;
71456;SDS011;59263;48.160;11.752;2023-07-13T02:02:40;3.10;;;1.05;;
71456;SDS011;59263;48.160;11.752;2023-07-13T02:05:05;3.03;;;1.00;;
71456;SDS011;59263;48.160;11.752;2023-07-13T02:07:31;5.03;;;1.63;;
71456;SDS011;59263;48.160;11.752;2023-07-13T02:09:57;4.53;;;1.40;;
71456;SDS011;59263;48.160;11.752;2023-07-13T02:12:22;4.37;;;1.37;;
71456;SDS011;59263;48.160;11.752;2023-07-13T02:14:48;4.23;;;1.20;;
71456;SDS011;59263;48.160;11.752;2023-07-13T02:17:13;5.10;;;1.23;;
71456;SDS011;59263;48.160;11.752;2023-07-13T02:19:39;3.42;;;1.15;;
71456;SDS011;59263;48.160;11.752;2023-07-13T02:22:04;4.50;;;1.40;;
71456;SDS011;59263;48.160;11.752;2023-07-13T02:24:29;4.83;;;1.40;;
71456;SDS011;59263;48.160;11.752;2023-07-13T02:26:55;3.90;;;1.20;;
71456;SDS011;59263;48.160;11.752;2023-07-13T02:29:20;4.53;;;1.33;;
71456;SDS011;59263;48.160;11.752;2023-07-13T02:31:45;4.13;;;1.37;;
71456;SDS011;59263;48.160;11.752;2023-07-13T02:34:11;4.67;;;1.40;;
71456;SDS011;59263;48.160;11.752;2023-07-13T02:36:36;5.32;;;1.50;;
71456;SDS011;59263;48.160;11.752;2023-07-13T02:39:02;4.40;;;1.37;;
71456;SDS011;59263;48.160;11.752;2023-07-13T02:41:30;4.57;;;1.35;;
71456;SDS011;59263;48.160;11.752;2023-07-13T02:43:55;4.23;;;1.43;;
71456;SDS011;59263;48.160;11.752;2023-07-13T02:46:28;3.88;;;1.25;;
71456;SDS011;59263;48.160;11.752;2023-07-13T02:48:53;4.20;;;1.45;;
71456;SDS011;59263;48.160;11.752;2023-07-13T02:51:19;3.25;;;1.30;;
71456;SDS011;59263;48.160;11.752;2023-07-13T02:53:44;4.77;;;1.50;;
71456;SDS011;59263;48.160;11.752;2023-07-13T02:56:09;5.70;;;1.50;;
71456;SDS011;59263;48.160;11.752;2023-07-13T02:58:35;4.37;;;1.50;;
71456;SDS011;59263;48.160;11.752;2023-07-13T03:01:05;4.18;;;1.60;;
71456;SDS011;59263;48.160;11.752;2023-07-13T03:03:31;4.57;;;1.33;;
71456;SDS011;59263;48.160;11.752;2023-07-13T03:06:00;5.83;;;1.80;;
71456;SDS011;59263;48.160;11.752;2023-07-13T03:08:28;5.10;;;1.90;;
71456;SDS011;59263;48.160;11.752;2023-07-13T03:13:48;6.07;;;1.90;;
71456;SDS011;59263;48.160;11.752;2023-07-13T03:16:14;5.27;;;1.77;;
71456;SDS011;59263;48.160;11.752;2023-07-13T03:18:43;6.72;;;1.75;;
71456;SDS011;59263;48.160;11.752;2023-07-13T03:21:08;5.80;;;2.27;;
71456;SDS011;59263;48.160;11.752;2023-07-13T03:23:34;5.63;;;1.90;;
71456;SDS011;59263;48.160;11.752;2023-07-13T03:26:03;6.53;;;2.37;;
71456;SDS011;59263;48.160;11.752;2023-07-13T03:28:49;7.28;;;2.40;;
71456;SDS011;59263;48.160;11.752;2023-07-13T03:31:16;4.53;;;1.60;;
71456;SDS011;59263;48.160;11.752;2023-07-13T03:33:43;6.00;;;1.70;;
71456;SDS011;59263;48.160;11.752;2023-07-13T03:36:12;6.30;;;1.95;;
71456;SDS011;59263;48.160;11.752;2023-07-13T03:38:43;5.75;;;2.08;;
71456;SDS011;59263;48.160;11.752;2023-07-13T03:41:11;6.88;;;2.25;;
71456;SDS011;59263;48.160;11.752;2023-07-13T03:43:36;9.47;;;2.50;;
71456;SDS011;59263;48.160;11.752;2023-07-13T03:46:02;7.53;;;2.00;;
71456;SDS011;59263;48.160;11.752;2023-07-13T03:48:27;5.77;;;1.90;;
71456;SDS011;59263;48.160;11.752;2023-07-13T03:50:52;6.50;;;2.13;;
71456;SDS011;59263;48.160;11.752;2023-07-13T03:53:17;6.43;;;1.93;;
71456;SDS011;59263;48.160;11.752;2023-07-13T03:55:44;6.57;;;2.08;;
71456;SDS011;59263;48.160;11.752;2023-07-13T04:00:55;5.30;;;1.85;;
71456;SDS011;59263;48.160;11.752;2023-07-13T04:03:22;4.90;;;1.67;;
71456;SDS011;59263;48.160;11.752;2023-07-13T04:05:48;4.88;;;1.70;;
71456;SDS011;59263;48.160;11.752;2023-07-13T04:08:13;4.97;;;1.80;;
71456;SDS011;59263;48.160;11.752;2023-07-13T04:10:38;5.93;;;1.87;;
71456;SDS011;59263;48.160;11.752;2023-07-13T04:13:04;6.30;;;2.10;;
71456;SDS011;59263;48.160;11.752;2023-07-13T04:15:30;6.63;;;1.70;;
71456;SDS011;59263;48.160;11.752;2023-07-13T04:17:56;5.20;;;2.03;;
71456;SDS011;59263;48.160;11.752;2023-07-13T04:20:22;6.85;;;2.10;;
71456;SDS011;59263;48.160;11.752;2023-07-13T04:22:47;5.23;;;1.70;;
71456;SDS011;59263;48.160;11.752;2023-07-13T04:25:13;4.93;;;1.40;;
71456;SDS011;59263;48.160;11.752;2023-07-13T04:27:38;6.63;;;2.10;;
71456;SDS011;59263;48.160;11.752;2023-07-13T04:30:04;7.38;;;2.00;;
71456;SDS011;59263;48.160;11.752;2023-07-13T04:32:30;7.03;;;1.90;;
71456;SDS011;59263;48.160;11.752;2023-07-13T04:34:57;6.03;;;1.63;;
71456;SDS011;59263;48.160;11.752;2023-07-13T04:37:24;5.57;;;1.80;;
71456;SDS011;59263;48.160;11.752;2023-07-13T04:39:49;6.70;;;1.65;;
71456;SDS011;59263;48.160;11.752;2023-07-13T04:42:15;5.43;;;1.67;;
71456;SDS011;59263;48.160;11.752;2023-07-13T04:44:40;5.83;;;1.90;;
71456;SDS011;59263;48.160;11.752;2023-07-13T04:47:06;5.07;;;1.75;;
71456;SDS011;59263;48.160;11.752;2023-07-13T04:49:32;4.93;;;1.50;;
71456;SDS011;59263;48.160;11.752;2023-07-13T04:51:57;5.17;;;1.73;;
71456;SDS011;59263;48.160;11.752;2023-07-13T04:54:22;5.47;;;1.90;;
71456;SDS011;59263;48.160;11.752;2023-07-13T04:56:47;6.40;;;1.63;;
71456;SDS011;59263;48.160;11.752;2023-07-13T04:59:13;6.67;;;1.80;;
71456;SDS011;59263;48.160;11.752;2023-07-13T05:01:38;5.37;;;1.80;;
71456;SDS011;59263;48.160;11.752;2023-07-13T05:04:03;6.13;;;1.65;;
71456;SDS011;59263;48.160;11.752;2023-07-13T05:06:29;5.53;;;1.67;;
71456;SDS011;59263;48.160;11.752;2023-07-13T05:08:55;5.70;;;1.90;;
71456;SDS011;59263;48.160;11.752;2023-07-13T05:11:20;5.53;;;2.15;;
71456;SDS011;59263;48.160;11.752;2023-07-13T05:13:46;4.67;;;1.50;;
71456;SDS011;59263;48.160;11.752;2023-07-13T05:16:12;5.43;;;1.67;;
71456;SDS011;59263;48.160;11.752;2023-07-13T05:18:37;5.20;;;1.50;;
71456;SDS011;59263;48.160;11.752;2023-07-13T05:21:04;5.72;;;1.65;;
71456;SDS011;59263;48.160;11.752;2023-07-13T05:23:32;3.88;;;1.38;;
71456;SDS011;59263;48.160;11.752;2023-07-13T05:25:58;4.95;;;1.63;;
71456;SDS011;59263;48.160;11.752;2023-07-13T05:28:25;5.18;;;1.40;;
71456;SDS011;59263;48.160;11.752;2023-07-13T05:30:51;6.05;;;1.80;;
71456;SDS011;59263;48.160;11.752;2023-07-13T05:33:16;5.53;;;1.58;;
71456;SDS011;59263;48.160;11.752;2023-07-13T05:35:42;4.80;;;1.60;;
71456;SDS011;59263;48.160;11.752;2023-07-13T05:38:07;4.57;;;1.50;;
71456;SDS011;59263;48.160;11.752;2023-07-13T05:40:33;5.30;;;1.70;;
71456;SDS011;59263;48.160;11.752;2023-07-13T05:42:58;5.80;;;1.77;;
71456;SDS011;59263;48.160;11.752;2023-07-13T05:45:23;4.43;;;1.70;;
71456;SDS011;59263;48.160;11.752;2023-07-13T05:47:49;6.47;;;2.03;;
71456;SDS011;59263;48.160;11.752;2023-07-13T05:50:14;6.97;;;1.83;;
71456;SDS011;59263;48.160;11.752;2023-07-13T05:52:40;5.07;;;1.47;;
71456;SDS011;59263;48.160;11.752;2023-07-13T05:55:05;4.83;;;1.43;;
71456;SDS011;59263;48.160;11.752;2023-07-13T05:57:30;6.68;;;1.70;;
71456;SDS011;59263;48.160;11.752;2023-07-13T05:59:56;4.67;;;1.57;;
71456;SDS011;59263;48.160;11.752;2023-07-13T06:02:22;5.70;;;1.48;;
71456;SDS011;59263;48.160;11.752;2023-07-13T06:04:47;5.70;;;1.80;;
71456;SDS011;59263;48.160;11.752;2023-07-13T06:07:12;3.97;;;1.40;;
71456;SDS011;59263;48.160;11.752;2023-07-13T06:09:38;4.83;;;1.33;;
71456;SDS011;59263;48.160;11.752;2023-07-13T06:12:03;5.00;;;1.67;;
71456;SDS011;59263;48.160;11.752;2023-07-13T06:14:29;3.92;;;1.40;;
71456;SDS011;59263;48.160;11.752;2023-07-13T06:16:54;6.77;;;1.67;;
71456;SDS011;59263;48.160;11.752;2023-07-13T06:19:20;5.53;;;1.77;;
71456;SDS011;59263;48.160;11.752;2023-07-13T06:21:45;4.30;;;1.43;;
71456;SDS011;59263;48.160;11.752;2023-07-13T06:24:10;5.90;;;1.90;;
71456;SDS011;59263;48.160;11.752;2023-07-13T06:26:35;4.97;;;1.60;;
71456;SDS011;59263;48.160;11.752;2023-07-13T06:29:01;5.03;;;1.40;;
71456;SDS011;59263;48.160;11.752;2023-07-13T06:31:26;4.80;;;1.60;;
71456;SDS011;59263;48.160;11.752;2023-07-13T06:33:51;4.80;;;1.48;;
71456;SDS011;59263;48.160;11.752;2023-07-13T06:36:17;5.13;;;1.70;;
71456;SDS011;59263;48.160;11.752;2023-07-13T06:38:42;5.83;;;1.73;;
71456;SDS011;59263;48.160;11.752;2023-07-13T06:41:08;4.82;;;1.60;;
71456;SDS011;59263;48.160;11.752;2023-07-13T06:43:34;5.10;;;1.75;;
71456;SDS011;59263;48.160;11.752;2023-07-13T06:45:59;4.07;;;1.47;;
71456;SDS011;59263;48.160;11.752;2023-07-13T06:48:26;4.93;;;1.60;;
71456;SDS011;59263;48.160;11.752;2023-07-13T06:50:51;4.53;;;1.43;;
71456;SDS011;59263;48.160;11.752;2023-07-13T06:53:18;4.80;;;1.75;;
71456;SDS011;59263;48.160;11.752;2023-07-13T06:55:44;5.60;;;1.70;;
71456;SDS011;59263;48.160;11.752;2023-07-13T06:58:10;5.33;;;1.57;;
71456;SDS011;59263;48.160;11.752;2023-07-13T07:00:35;4.63;;;1.60;;
71456;SDS011;59263;48.160;11.752;2023-07-13T07:03:01;5.63;;;1.50;;
71456;SDS011;59263;48.160;11.752;2023-07-13T07:05:26;5.55;;;1.65;;
71456;SDS011;59263;48.160;11.752;2023-07-13T07:07:52;4.03;;;1.20;;
71456;SDS011;59263;48.160;11.752;2023-07-13T07:10:19;4.82;;;1.33;;
71456;SDS011;59263;48.160;11.752;2023-07-13T07:12:45;5.85;;;1.70;;
71456;SDS011;59263;48.160;11.752;2023-07-13T07:15:11;5.05;;;1.55;;
71456;SDS011;59263;48.160;11.752;2023-07-13T07:17:36;3.88;;;1.38;;
71456;SDS011;59263;48.160;11.752;2023-07-13T07:20:02;5.60;;;1.53;;
71456;SDS011;59263;48.160;11.752;2023-07-13T07:22:28;4.63;;;1.30;;
71456;SDS011;59263;48.160;11.752;2023-07-13T07:24:55;3.65;;;1.30;;
71456;SDS011;59263;48.160;11.752;2023-07-13T07:27:21;5.53;;;1.38;;
71456;SDS011;59263;48.160;11.752;2023-07-13T07:29:46;5.53;;;1.70;;
71456;SDS011;59263;48.160;11.752;2023-07-13T07:32:11;4.27;;;1.40;;
71456;SDS011;59263;48.160;11.752;2023-07-13T07:34:37;7.67;;;1.37;;
71456;SDS011;59263;48.160;11.752;2023-07-13T07:37:03;4.30;;;1.23;;
71456;SDS011;59263;48.160;11.752;2023-07-13T07:39:28;4.95;;;1.60;;
71456;SDS011;59263;48.160;11.752;2023-07-13T07:41:54;3.93;;;1.23;;
71456;SDS011;59263;48.160;11.752;2023-07-13T07:44:19;4.78;;;1.60;;
71456;SDS011;59263;48.160;11.752;2023-07-13T07:46:45;4.77;;;1.40;;
71456;SDS011;59263;48.160;11.752;2023-07-13T07:49:10;4.67;;;1.40;;
71456;SDS011;59263;48.160;11.752;2023-07-13T07:51:35;5.17;;;1.50;;
71456;SDS011;59263;48.160;11.752;2023-07-13T07:54:01;3.90;;;1.23;;
71456;SDS011;59263;48.160;11.752;2023-07-13T07:56:28;2.83;;;1.00;;
71456;SDS011;59263;48.160;11.752;2023-07-13T07:58:53;9.20;;;1.33;;
71456;SDS011;59263;48.160;11.752;2023-07-13T08:01:18;5.68;;;1.50;;
71456;SDS011;59263;48.160;11.752;2023-07-13T08:03:44;4.47;;;1.27;;
71456;SDS011;59263;48.160;11.752;2023-07-13T08:06:09;4.03;;;1.30;;
71456;SDS011;59263;48.160;11.752;2023-07-13T08:08:34;3.80;;;1.30;;
71456;SDS011;59263;48.160;11.752;2023-07-13T08:11:02;3.80;;;1.30;;
71456;SDS011;59263;48.160;11.752;2023-07-13T08:13:29;11.93;;;1.15;;
71456;SDS011;59263;48.160;11.752;2023-07-13T08:15:54;11.70;;;1.30;;
71456;SDS011;59263;48.160;11.752;2023-07-13T08:18:19;5.77;;;1.37;;
71456;SDS011;59263;48.160;11.752;2023-07-13T08:20:45;4.57;;;1.02;;
71456;SDS011;59263;48.160;11.752;2023-07-13T08:23:11;4.18;;;1.30;;
71456;SDS011;59263;48.160;11.752;2023-07-13T08:25:36;4.07;;;1.37;;
71456;SDS011;59263;48.160;11.752;2023-07-13T08:28:02;4.37;;;1.40;;
71456;SDS011;59263;48.160;11.752;2023-07-13T08:30:28;3.78;;;1.25;;
71456;SDS011;59263;48.160;11.752;2023-07-13T08:32:53;4.32;;;1.40;;
71456;SDS011;59263;48.160;11.752;2023-07-13T08:35:19;6.87;;;1.50;;
71456;SDS011;59263;48.160;11.752;2023-07-13T08:37:44;4.57;;;1.40;;
71456;SDS011;59263;48.160;11.752;2023-07-13T08:40:10;4.17;;;1.20;;
71456;SDS011;59263;48.160;11.752;2023-07-13T08:42:37;5.13;;;1.48;;
71456;SDS011;59263;48.160;11.752;2023-07-13T08:45:17;5.50;;;1.42;;
71456;SDS011;59263;48.160;11.752;2023-07-13T08:47:53;4.00;;;1.30;;
71456;SDS011;59263;48.160;11.752;2023-07-13T08:50:23;4.90;;;1.55;;
71456;SDS011;59263;48.160;11.752;2023-07-13T08:52:54;2.65;;;0.95;;
71456;SDS011;59263;48.160;11.752;2023-07-13T08:55:21;4.65;;;1.48;;
71456;SDS011;59263;48.160;11.752;2023-07-13T08:57:53;3.28;;;1.15;;
71456;SDS011;59263;48.160;11.752;2023-07-13T09:00:31;4.90;;;1.45;;
71456;SDS011;59263;48.160;11.752;2023-07-13T09:03:02;4.95;;;1.50;;
71456;SDS011;59263;48.160;11.752;2023-07-13T09:05:29;7.53;;;1.40;;
71456;SDS011;59263;48.160;11.752;2023-07-13T09:11:00;3.97;;;1.33;;
71456;SDS011;59263;48.160;11.752;2023-07-13T09:16:11;5.68;;;1.13;;
71456;SDS011;59263;48.160;11.752;2023-07-13T09:18:47;3.15;;;1.10;;
71456;SDS011;59263;48.160;11.752;2023-07-13T09:21:20;2.50;;;0.90;;
71456;SDS011;59263;48.160;11.752;2023-07-13T09:23:49;3.80;;;1.08;;
71456;SDS011;59263;48.160;11.752;2023-07-13T09:26:21;3.50;;;1.15;;
71456;SDS011;59263;48.160;11.752;2023-07-13T09:28:49;3.88;;;1.00;;
71456;SDS011;59263;48.160;11.752;2023-07-13T09:31:34;2.72;;;0.73;;
71456;SDS011;59263;48.160;11.752;2023-07-13T09:34:08;3.53;;;1.10;;
71456;SDS011;59263;48.160;11.752;2023-07-13T09:36:35;2.35;;;0.98;;
71456;SDS011;59263;48.160;11.752;2023-07-13T09:44:36;4.30;;;1.10;;
71456;SDS011;59263;48.160;11.752;2023-07-13T09:47:03;5.22;;;1.25;;
71456;SDS011;59263;48.160;11.752;2023-07-13T09:49:38;6.00;;;1.10;;
71456;SDS011;59263;48.160;11.752;2023-07-13T09:52:05;2.58;;;0.90;;
71456;SDS011;59263;48.160;11.752;2023-07-13T09:54:35;2.97;;;0.87;;
71456;SDS011;59263;48.160;11.752;2023-07-13T09:57:02;3.80;;;1.20;;
71456;SDS011;59263;48.160;11.752;2023-07-13T09:59:42;2.90;;;1.00;;
71456;SDS011;59263;48.160;11.752;2023-07-13T10:02:25;3.35;;;1.10;;
71456;SDS011;59263;48.160;11.752;2023-07-13T10:04:56;3.30;;;0.90;;
71456;SDS011;59263;48.160;11.752;2023-07-13T10:07:23;1.90;;;0.73;;
71456;SDS011;59263;48.160;11.752;2023-07-13T10:09:56;5.40;;;1.30;;
71456;SDS011;59263;48.160;11.752;2023-07-13T10:12:22;1.85;;;0.88;;
71456;SDS011;59263;48.160;11.752;2023-07-13T10:14:50;4.65;;;1.13;;
71456;SDS011;59263;48.160;11.752;2023-07-13T10:17:19;5.38;;;1.15;;
71456;SDS011;59263;48.160;11.752;2023-07-13T10:19:55;3.40;;;0.90;;
71456;SDS011;59263;48.160;11.752;2023-07-13T10:22:36;1.63;;;0.70;;
71456;SDS011;59263;48.160;11.752;2023-07-13T10:25:13;2.88;;;0.90;;
71456;SDS011;59263;48.160;11.752;2023-07-13T10:27:41;1.60;;;0.70;;
71456;SDS011;59263;48.160;11.752;2023-07-13T10:30:19;1.73;;;0.73;;
71456;SDS011;59263;48.160;11.752;2023-07-13T10:32:47;2.80;;;0.90;;
71456;SDS011;59263;48.160;11.752;2023-07-13T10:35:14;1.92;;;0.93;;
71456;SDS011;59263;48.160;11.752;2023-07-13T10:38:05;4.07;;;0.98;;
71456;SDS011;59263;48.160;11.752;2023-07-13T10:41:01;3.75;;;0.90;;
71456;SDS011;59263;48.160;11.752;2023-07-13T10:43:34;2.78;;;0.90;;
71456;SDS011;59263;48.160;11.752;2023-07-13T10:46:05;2.53;;;0.80;;
71456;SDS011;59263;48.160;11.752;2023-07-13T10:48:33;2.90;;;0.95;;
71456;SDS011;59263;48.160;11.752;2023-07-13T10:51:01;2.25;;;0.93;;
71456;SDS011;59263;48.160;11.752;2023-07-13T10:53:32;4.95;;;1.17;;
71456;SDS011;59263;48.160;11.752;2023-07-13T10:56:00;4.32;;;1.25;;
71456;SDS011;59263;48.160;11.752;2023-07-13T11:03:31;2.57;;;0.90;;
71456;SDS011;59263;48.160;11.752;2023-07-13T11:08:57;3.30;;;1.10;;
71456;SDS011;59263;48.160;11.752;2023-07-13T11:18:45;6.90;;;1.08;;
71456;SDS011;59263;48.160;11.752;2023-07-13T11:21:16;4.10;;;1.30;;
71456;SDS011;59263;48.160;11.752;2023-07-13T11:23:43;3.88;;;1.13;;
71456;SDS011;59263;48.160;11.752;2023-07-13T11:31:53;3.85;;;1.10;;
71456;SDS011;59263;48.160;11.752;2023-07-13T11:34:26;2.15;;;0.90;;
71456;SDS011;59263;48.160;11.752;2023-07-13T11:36:54;2.90;;;1.08;;
71456;SDS011;59263;48.160;11.752;2023-07-13T11:39:24;3.35;;;1.17;;
71456;SDS011;59263;48.160;11.752;2023-07-13T11:42:00;6.67;;;1.73;;
71456;SDS011;59263;48.160;11.752;2023-07-13T11:44:29;3.55;;;1.30;;
71456;SDS011;59263;48.160;11.752;2023-07-13T11:46:56;2.75;;;0.90;;
71456;SDS011;59263;48.160;11.752;2023-07-13T11:49:26;2.80;;;0.90;;
71456;SDS011;59263;48.160;11.752;2023-07-13T11:51:52;2.65;;;0.90;;
71456;SDS011;59263;48.160;11.752;2023-07-13T11:54:26;4.37;;;1.00;;
71456;SDS011;59263;48.160;11.752;2023-07-13T11:57:07;2.53;;;0.90;;
71456;SDS011;59263;48.160;11.752;2023-07-13T11:59:48;5.20;;;1.40;;
71456;SDS011;59263;48.160;11.752;2023-07-13T12:02:16;3.30;;;1.08;;
71456;SDS011;59263;48.160;11.752;2023-07-13T12:04:49;3.30;;;1.13;;
71456;SDS011;59263;48.160;11.752;2023-07-13T12:07:17;7.07;;;1.10;;
71456;SDS011;59263;48.160;11.752;2023-07-13T12:09:44;2.58;;;1.05;;
71456;SDS011;59263;48.160;11.752;2023-07-13T12:12:11;2.90;;;1.10;;
71456;SDS011;59263;48.160;11.752;2023-07-13T12:14:42;2.70;;;0.90;;
71456;SDS011;59263;48.160;11.752;2023-07-13T12:17:09;2.93;;;1.00;;
71456;SDS011;59263;48.160;11.752;2023-07-13T12:19:40;2.35;;;1.00;;
71456;SDS011;59263;48.160;11.752;2023-07-13T12:22:08;2.50;;;0.93;;
71456;SDS011;59263;48.160;11.752;2023-07-13T12:24:37;3.13;;;1.02;;
71456;SDS011;59263;48.160;11.752;2023-07-13T12:27:04;2.13;;;0.87;;
71456;SDS011;59263;48.160;11.752;2023-07-13T12:29:31;3.40;;;1.10;;
71456;SDS011;59263;48.160;11.752;2023-07-13T12:31:57;5.32;;;1.17;;
71456;SDS011;59263;48.160;11.752;2023-07-13T12:34:24;3.53;;;1.17;;
71456;SDS011;59263;48.160;11.752;2023-07-13T12:39:28;4.80;;;1.10;;
71456;SDS011;59263;48.160;11.752;2023-07-13T12:42:10;3.67;;;1.03;;
71456;SDS011;59263;48.160;11.752;2023-07-13T12:44:45;3.25;;;1.08;;
71456;SDS011;59263;48.160;11.752;2023-07-13T12:47:11;6.50;;;1.23;;
71456;SDS011;59263;48.160;11.752;2023-07-13T12:49:43;5.05;;;1.38;;
71456;SDS011;59263;48.160;11.752;2023-07-13T12:52:16;5.18;;;1.25;;
71456;SDS011;59263;48.160;11.752;2023-07-13T12:54:55;4.22;;;1.33;;
71456;SDS011;59263;48.160;11.752;2023-07-13T12:57:24;3.88;;;1.30;;
71456;SDS011;59263;48.160;11.752;2023-07-13T12:59:54;3.53;;;1.20;;
71456;SDS011;59263;48.160;11.752;2023-07-13T13:02:26;4.45;;;1.45;;
71456;SDS011;59263;48.160;11.752;2023-07-13T13:04:56;3.28;;;1.08;;
71456;SDS011;59263;48.160;11.752;2023-07-13T13:07:22;3.50;;;1.30;;
71456;SDS011;59263;48.160;11.752;2023-07-13T13:09:48;4.00;;;1.10;;
71456;SDS011;59263;48.160;11.752;2023-07-13T13:12:14;3.83;;;1.30;;
71456;SDS011;59263;48.160;11.752;2023-07-13T13:14:40;3.25;;;1.00;;
71456;SDS011;59263;48.160;11.752;2023-07-13T13:17:11;2.83;;;1.07;;
71456;SDS011;59263;48.160;11.752;2023-07-13T13:19:44;2.83;;;1.20;;
71456;SDS011;59263;48.160;11.752;2023-07-13T13:22:10;2.90;;;1.00;;
71456;SDS011;59263;48.160;11.752;2023-07-13T13:24:35;3.70;;;1.23;;
71456;SDS011;59263;48.160;11.752;2023-07-13T13:27:00;3.43;;;1.20;;
71456;SDS011;59263;48.160;11.752;2023-07-13T13:29:27;3.08;;;1.10;;
71456;SDS011;59263;48.160;11.752;2023-07-13T13:31:55;5.80;;;1.17;;
71456;SDS011;59263;48.160;11.752;2023-07-13T13:34:21;4.43;;;1.27;;
71456;SDS011;59263;48.160;11.752;2023-07-13T13:36:48;2.83;;;1.08;;
71456;SDS011;59263;48.160;11.752;2023-07-13T13:41:52;3.22;;;1.10;;
71456;SDS011;59263;48.160;11.752;2023-07-13T13:44:19;3.17;;;1.10;;
71456;SDS011;59263;48.160;11.752;2023-07-13T13:46:46;5.50;;;1.57;;
71456;SDS011;59263;48.160;11.752;2023-07-13T13:49:14;2.78;;;1.02;;
71456;SDS011;59263;48.160;11.752;2023-07-13T13:51:42;4.38;;;1.20;;
71456;SDS011;59263;48.160;11.752;2023-07-13T13:54:14;3.08;;;1.10;;
71456;SDS011;59263;48.160;11.752;2023-07-13T13:56:45;3.67;;;1.10;;
71456;SDS011;59263;48.160;11.752;2023-07-13T13:59:12;4.00;;;1.00;;
71456;SDS011;59263;48.160;11.752;2023-07-13T14:01:38;3.20;;;1.08;;
71456;SDS011;59263;48.160;11.752;2023-07-13T14:04:04;8.23;;;1.30;;
71456;SDS011;59263;48.160;11.752;2023-07-13T14:06:31;2.85;;;1.10;;
71456;SDS011;59263;48.160;11.752;2023-07-13T14:08:58;3.13;;;1.05;;
71456;SDS011;59263;48.160;11.752;2023-07-13T14:11:24;3.92;;;1.20;;
71456;SDS011;59263;48.160;11.752;2023-07-13T14:13:52;4.43;;;1.20;;
71456;SDS011;59263;48.160;11.752;2023-07-13T14:16:20;3.13;;;1.17;;
71456;SDS011;59263;48.160;11.752;2023-07-13T14:18:48;3.60;;;1.20;;
71456;SDS011;59263;48.160;11.752;2023-07-13T14:21:18;2.57;;;1.00;;
71456;SDS011;59263;48.160;11.752;2023-07-13T14:23:45;3.83;;;1.20;;
71456;SDS011;59263;48.160;11.752;2023-07-13T14:26:11;3.70;;;1.20;;
71456;SDS011;59263;48.160;11.752;2023-07-13T14:28:41;3.55;;;1.20;;
71456;SDS011;59263;48.160;11.752;2023-07-13T14:31:09;3.78;;;1.15;;
71456;SDS011;59263;48.160;11.752;2023-07-13T14:33:35;3.28;;;1.05;;
71456;SDS011;59263;48.160;11.752;2023-07-13T14:36:00;3.80;;;1.13;;
71456;SDS011;59263;48.160;11.752;2023-07-13T14:38:27;3.33;;;1.05;;
71456;SDS011;59263;48.160;11.752;2023-07-13T14:40:53;4.17;;;1.30;;
71456;SDS011;59263;48.160;11.752;2023-07-13T14:43:18;3.43;;;1.10;;
71456;SDS011;59263;48.160;11.752;2023-07-13T14:45:44;4.60;;;1.17;;
71456;SDS011;59263;48.160;11.752;2023-07-13T14:50:49;3.25;;;1.02;;
71456;SDS011;59263;48.160;11.752;2023-07-13T14:53:18;3.85;;;1.15;;
71456;SDS011;59263;48.160;11.752;2023-07-13T14:55:43;3.30;;;1.20;;
71456;SDS011;59263;48.160;11.752;2023-07-13T14:58:09;3.80;;;1.17;;
71456;SDS011;59263;48.160;11.752;2023-07-13T15:00:35;3.05;;;0.80;;
71456;SDS011;59263;48.160;11.752;2023-07-13T15:03:02;2.67;;;1.10;;
71456;SDS011;59263;48.160;11.752;2023-07-13T15:05:29;3.87;;;1.27;;
71456;SDS011;59263;48.160;11.752;2023-07-13T15:08:00;4.43;;;1.35;;
71456;SDS011;59263;48.160;11.752;2023-07-13T15:10:29;2.05;;;0.90;;
71456;SDS011;59263;48.160;11.752;2023-07-13T15:12:58;3.40;;;1.20;;
71456;SDS011;59263;48.160;11.752;2023-07-13T15:15:43;2.38;;;0.93;;
71456;SDS011;59263;48.160;11.752;2023-07-13T15:18:11;2.23;;;0.90;;
71456;SDS011;59263;48.160;11.752;2023-07-13T15:20:37;3.40;;;0.93;;